createdAt,value
2016-06-28T00:04:02.238Z,1020.73
2016-06-28T00:09:02.211Z,1020.76
2016-06-28T00:14:02.190Z,1020.73
2016-06-28T00:19:02.162Z,1020.74
2016-06-28T00:24:02.138Z,1020.77
2016-06-28T00:29:02.117Z,1020.73
2016-06-28T00:34:02.115Z,1020.79
2016-06-28T00:39:02.075Z,1020.78
2016-06-28T00:44:02.042Z,1020.81
2016-06-28T00:49:02.015Z,1020.74
2016-06-28T00:54:01.992Z,1020.68
2016-06-28T00:59:01.964Z,1020.61
2016-06-28T01:04:01.938Z,1020.67
2016-06-28T01:09:01.918Z,1020.65
2016-06-28T01:14:01.892Z,1020.7
2016-06-28T01:19:01.864Z,1020.67
2016-06-28T01:24:01.838Z,1020.63
2016-06-28T01:29:01.807Z,1020.66
2016-06-28T01:34:01.791Z,1020.58
2016-06-28T01:39:01.766Z,1020.5
2016-06-28T01:44:01.737Z,1020.52
2016-06-28T01:49:01.718Z,1020.49
2016-06-28T01:54:01.684Z,1020.46
2016-06-28T01:59:01.653Z,1020.36
2016-06-28T02:04:01.630Z,1020.28
2016-06-28T02:09:01.602Z,1020.26
2016-06-28T02:14:01.572Z,1020.28
2016-06-28T02:19:01.549Z,1020.27
2016-06-28T02:24:01.523Z,1020.24
2016-06-28T02:29:01.496Z,1020.2
2016-06-28T02:34:01.467Z,1020.2
2016-06-28T02:39:01.439Z,1020.2
2016-06-28T02:44:01.423Z,1020.2
2016-06-28T02:49:01.398Z,1020.21
2016-06-28T02:54:01.358Z,1020.16
2016-06-28T02:59:01.330Z,1020.23
2016-06-28T03:04:01.301Z,1020.22
2016-06-28T03:09:01.275Z,1020.22
2016-06-28T03:14:01.250Z,1020.19
2016-06-28T03:19:01.219Z,1020.13
2016-06-28T03:24:01.191Z,1020.16
2016-06-28T03:29:01.160Z,1020.16
2016-06-28T03:34:01.126Z,1020.19
2016-06-28T03:39:01.106Z,1020.12
2016-06-28T03:44:01.064Z,1020.16
2016-06-28T03:49:01.047Z,1020.18
2016-06-28T03:54:01.011Z,1020.17
2016-06-28T03:59:00.979Z,1020.18
2016-06-28T04:04:00.957Z,1020.24
2016-06-28T04:09:00.931Z,1020.22
2016-06-28T04:14:00.891Z,1020.21
2016-06-28T04:19:00.860Z,1020.21
2016-06-28T04:24:00.831Z,1020.2
2016-06-28T04:29:00.813Z,1020.16
2016-06-28T04:34:00.778Z,1020.09
2016-06-28T04:39:00.753Z,1020.23
2016-06-28T04:44:00.730Z,1020.2
2016-06-28T04:49:00.698Z,1020.2
2016-06-28T04:54:00.672Z,1020.2
2016-06-28T04:59:00.646Z,1020.22
2016-06-28T05:04:00.631Z,1020.22
2016-06-28T05:09:00.595Z,1020.15
2016-06-28T05:14:00.569Z,1020.14
2016-06-28T05:19:00.546Z,1020.13
2016-06-28T05:24:00.522Z,1020.13
2016-06-28T05:29:00.499Z,1020.16
2016-06-28T05:34:00.489Z,1020.2
2016-06-28T05:39:00.448Z,1020.21
2016-06-28T05:44:00.425Z,1020.23
2016-06-28T05:49:00.404Z,1020.2
2016-06-28T05:54:00.383Z,1020.29
2016-06-28T05:59:00.364Z,1020.22
2016-06-28T06:04:00.358Z,1020.26
2016-06-28T06:09:00.326Z,1020.23
2016-06-28T06:14:00.321Z,1020.18
2016-06-28T06:19:00.282Z,1020.26
2016-06-28T06:24:00.262Z,1020.31
2016-06-28T06:29:00.245Z,1020.3
2016-06-28T06:34:00.240Z,1020.23
2016-06-28T06:39:00.214Z,1020.19
2016-06-28T06:44:00.199Z,1020.17
2016-06-28T06:49:00.177Z,1020.16
2016-06-28T06:54:00.173Z,1020.19
2016-06-28T06:59:00.152Z,1020.11
2016-06-28T07:04:00.154Z,1020.1
2016-06-28T07:09:00.147Z,1020.04
2016-06-28T07:14:00.152Z,1020.06
2016-06-28T07:19:00.154Z,1020.07
2016-06-28T07:24:00.144Z,1020.13
2016-06-28T07:29:00.165Z,1020.15
2016-06-28T07:34:00.156Z,1020.08
2016-06-28T07:39:00.159Z,1020.25
2016-06-28T07:44:00.182Z,1020.23
2016-06-28T07:49:00.185Z,1020.29
2016-06-28T07:54:00.182Z,1020.28
2016-06-28T07:59:00.221Z,1020.21
2016-06-28T08:04:00.205Z,1020.22
2016-06-28T08:09:00.209Z,1020.17
2016-06-28T08:14:00.227Z,1020.08
2016-06-28T08:19:00.221Z,1019.99
2016-06-28T08:24:00.229Z,1020.03
2016-06-28T08:29:00.239Z,1020.07
2016-06-28T08:34:00.249Z,1020
2016-06-28T08:39:00.273Z,1020.02
2016-06-28T08:44:00.289Z,1019.85
2016-06-28T08:49:00.294Z,1019.84
2016-06-28T08:54:00.306Z,1019.78
2016-06-28T08:59:00.317Z,1019.85
2016-06-28T09:04:00.332Z,1019.86
2016-06-28T09:09:00.351Z,1019.89
2016-06-28T09:14:00.366Z,1019.75
2016-06-28T09:19:00.387Z,1019.75
2016-06-28T09:24:00.417Z,1019.72
2016-06-28T09:29:00.425Z,1019.66
2016-06-28T09:34:00.436Z,1019.66
2016-06-28T09:39:00.446Z,1019.56
2016-06-28T09:44:00.416Z,1019.38
2016-06-28T09:49:00.384Z,1019.47
2016-06-28T09:54:00.374Z,1019.33
2016-06-28T09:59:00.331Z,1019.25
2016-06-28T10:04:00.295Z,1019.29
2016-06-28T10:09:00.270Z,1019.36
2016-06-28T10:14:00.247Z,1019.47
2016-06-28T10:19:00.217Z,1019.4
2016-06-28T10:24:00.201Z,1019.36
2016-06-28T10:29:00.152Z,1019.57
2016-06-28T10:34:00.134Z,1019.34
2016-06-28T10:39:00.101Z,1019.14
2016-06-28T10:44:00.071Z,1019.33
2016-06-28T10:49:00.040Z,1019.11
2016-06-28T10:58:59.987Z,1018.87
2016-06-28T11:03:59.958Z,1018.9
2016-06-28T11:08:59.925Z,1018.78
2016-06-28T11:13:59.891Z,1018.69
2016-06-28T11:18:59.869Z,1018.64
2016-06-28T11:23:59.830Z,1018.54
2016-06-28T11:28:59.812Z,1018.48
2016-06-28T11:33:59.765Z,1018.4
2016-06-28T11:38:59.734Z,1018.39
2016-06-28T11:43:59.697Z,1018.36
2016-06-28T11:48:59.664Z,1018.23
2016-06-28T11:53:59.632Z,1018.22
2016-06-28T11:58:59.599Z,1018.21
2016-06-28T12:03:59.572Z,1018.18
2016-06-28T12:08:59.531Z,1018.18
2016-06-28T12:18:59.464Z,1017.99
2016-06-28T14:28:58.557Z,1016.31
2016-06-28T20:57:50.431Z,1012
2016-06-28T21:02:50.265Z,1011.93
2016-06-28T21:07:50.256Z,1011.91
2016-06-28T21:12:50.241Z,1011.84
2016-06-28T21:17:50.243Z,1011.77
2016-06-28T21:22:50.227Z,1011.77
2016-06-28T21:27:50.216Z,1011.75
2016-06-28T21:32:50.203Z,1011.7
2016-06-28T21:37:50.197Z,1011.69
2016-06-28T21:42:50.189Z,1011.65
2016-06-28T21:47:50.199Z,1011.62
2016-06-28T21:52:50.174Z,1011.66
2016-06-28T21:57:50.175Z,1011.81
2016-06-28T22:02:50.158Z,1011.83
2016-06-28T22:07:50.143Z,1011.84
2016-06-28T22:12:50.133Z,1011.77
2016-06-28T22:17:50.133Z,1011.76
2016-06-28T22:22:50.125Z,1011.71
2016-06-28T22:27:50.114Z,1011.72
2016-06-28T22:32:50.110Z,1011.72
2016-06-28T22:37:50.093Z,1011.77
2016-06-28T22:42:50.080Z,1011.81
2016-06-28T22:47:50.079Z,1011.62
2016-06-28T22:52:50.066Z,1011.58
2016-06-28T22:57:50.060Z,1011.56
2016-06-28T23:02:50.045Z,1011.58
2016-06-28T23:07:50.035Z,1011.5
2016-06-28T23:12:50.026Z,1011.6
2016-06-28T23:17:50.014Z,1011.61
2016-06-28T23:22:50.001Z,1011.73
2016-06-28T23:27:49.994Z,1011.75
2016-06-28T23:32:49.985Z,1011.75
2016-06-28T23:37:49.972Z,1011.57
2016-06-28T23:42:49.965Z,1011.21
2016-06-28T23:47:49.950Z,1010.85
2016-06-28T23:52:49.942Z,1011.07
2016-06-28T23:57:49.983Z,1011.11
